Time;durP1;ratioP1;P1;durP2;ratioP2;P2;SDS_P1;SDS_P2;PMS_P1;PMS_P2;Temp;Humidity;BMP_temperature;BMP_pressure;BME280_temperature;BME280_humidity;BME280_pressure;Samples;Min_cycle;Max_cycle;Signal;HPM_P1;HPM_P2
2022/04/20 00:01:22;;;;;;;2.95;1.60;;;11.20;59.80;;;;;;5038287;28;20040;-68
2022/04/20 00:03:48;;;;;;;2.22;1.35;;;11.20;60.10;;;;;;5038528;28;20053;-67
2022/04/20 00:06:14;;;;;;;2.40;1.42;;;11.20;60.10;;;;;;5034202;28;20056;-67
2022/04/20 00:08:39;;;;;;;2.47;1.55;;;11.20;60.20;;;;;;5035722;28;20065;-67
2022/04/20 00:11:05;;;;;;;3.92;2.20;;;11.20;60.30;;;;;;5033395;28;20017;-68
2022/04/20 00:13:30;;;;;;;2.83;1.80;;;11.10;60.40;;;;;;5036402;28;20018;-68
2022/04/20 00:15:57;;;;;;;4.10;2.08;;;11.10;60.50;;;;;;5036139;28;20100;-68
2022/04/20 00:18:23;;;;;;;4.82;2.55;;;11.10;60.90;;;;;;5033333;28;20049;-67
2022/04/20 00:20:49;;;;;;;5.00;2.97;;;11.00;61.30;;;;;;5033325;28;20075;-68
2022/04/20 00:23:14;;;;;;;4.45;2.63;;;11.00;61.50;;;;;;5032654;28;20124;-68
2022/04/20 00:25:40;;;;;;;3.15;2.40;;;11.00;61.60;;;;;;5043446;28;20496;-67
2022/04/20 00:28:05;;;;;;;3.75;2.75;;;10.90;61.80;;;;;;5035642;28;20543;-68
2022/04/20 00:30:31;;;;;;;4.45;2.28;;;10.90;62.00;;;;;;5037805;28;20021;-67
2022/04/20 00:32:56;;;;;;;3.72;2.47;;;10.90;62.10;;;;;;5046130;28;20449;-68
2022/04/20 00:35:22;;;;;;;5.18;2.47;;;10.90;62.10;;;;;;5040930;28;20025;-67
2022/04/20 00:37:48;;;;;;;3.47;2.40;;;10.80;62.10;;;;;;5031309;28;20453;-67
2022/04/20 00:40:14;;;;;;;4.95;2.90;;;10.80;62.40;;;;;;5037275;28;20031;-68
2022/04/20 00:42:40;;;;;;;3.08;2.08;;;10.80;62.70;;;;;;5035227;28;20025;-68
2022/04/20 00:45:11;;;;;;;3.85;2.10;;;10.70;62.60;;;;;;5032840;28;20052;-67
2022/04/20 00:47:42;;;;;;;3.60;2.15;;;10.70;62.70;;;;;;5041246;28;20120;-67
2022/04/20 00:50:10;;;;;;;3.20;2.35;;;10.70;62.80;;;;;;5040771;28;20025;-68
2022/04/20 00:52:35;;;;;;;4.95;2.60;;;10.70;63.00;;;;;;5036151;28;20053;-67
2022/04/20 00:55:01;;;;;;;4.75;3.33;;;10.60;63.30;;;;;;5035592;28;20134;-68
2022/04/20 00:57:27;;;;;;;5.55;2.92;;;10.60;64.00;;;;;;5034084;28;20087;-68
2022/04/20 00:59:55;;;;;;;4.35;3.13;;;10.50;64.10;;;;;;5044494;28;20028;-68
2022/04/20 01:02:21;;;;;;;4.35;2.90;;;10.50;64.30;;;;;;5043071;28;20575;-67
2022/04/20 01:04:47;;;;;;;6.03;3.00;;;10.50;64.60;;;;;;5040417;28;20025;-67
2022/04/20 01:07:15;;;;;;;5.35;2.83;;;10.40;64.60;;;;;;5039761;28;20021;-68
2022/04/20 01:09:41;;;;;;;5.93;2.67;;;10.50;64.60;;;;;;5036171;28;20065;-68
2022/04/20 01:12:08;;;;;;;4.30;2.80;;;10.40;64.90;;;;;;5041592;28;20035;-68
2022/04/20 01:14:34;;;;;;;3.63;2.65;;;10.40;65.10;;;;;;5036391;28;20477;-68
2022/04/20 01:17:00;;;;;;;3.03;2.45;;;10.40;65.30;;;;;;5035258;28;20029;-68
2022/04/20 01:19:38;;;;;;;5.85;3.25;;;10.30;65.50;;;;;;5034408;28;20033;-68
2022/04/20 01:22:05;;;;;;;4.20;3.00;;;10.30;66.50;;;;;;5038484;28;20028;-67
2022/04/20 01:24:31;;;;;;;5.43;3.08;;;10.20;65.90;;;;;;5035594;28;20029;-68
2022/04/20 01:26:57;;;;;;;4.35;2.63;;;10.10;65.80;;;;;;5035493;28;20027;-68
2022/04/20 01:29:25;;;;;;;4.07;3.00;;;10.10;65.80;;;;;;5035530;28;20026;-67
2022/04/20 01:31:50;;;;;;;5.10;3.13;;;10.10;65.80;;;;;;5032638;28;20041;-67
2022/04/20 01:34:16;;;;;;;4.68;3.20;;;10.10;66.10;;;;;;5039896;28;20519;-67
2022/04/20 01:36:41;;;;;;;5.70;3.40;;;10.10;66.30;;;;;;5036517;28;20485;-67
2022/04/20 01:39:07;;;;;;;6.45;3.45;;;10.00;66.70;;;;;;5034681;28;20037;-67
2022/04/20 01:41:32;;;;;;;5.30;3.65;;;10.00;67.50;;;;;;5029697;28;20025;-67
2022/04/20 01:43:58;;;;;;;5.07;3.63;;;9.90;67.50;;;;;;5037273;28;20021;-67
2022/04/20 01:46:23;;;;;;;6.00;3.60;;;9.90;68.00;;;;;;5031826;28;20025;-67
2022/04/20 01:48:49;;;;;;;4.70;2.95;;;9.80;68.30;;;;;;5034586;28;20142;-67
2022/04/20 01:53:59;;;;;;;5.47;4.05;;;9.80;69.00;;;;;;5031984;28;20487;-67
2022/04/20 01:56:25;;;;;;;5.85;3.55;;;9.70;69.70;;;;;;5031625;28;20453;-68
2022/04/20 01:58:50;;;;;;;5.07;3.60;;;9.70;69.70;;;;;;5037133;28;20028;-68
2022/04/20 02:04:00;;;;;;;4.82;3.05;;;9.60;69.80;;;;;;5032758;28;20102;-67
2022/04/20 02:06:25;;;;;;;5.18;3.53;;;9.60;69.70;;;;;;5035585;28;20476;-67
2022/04/20 02:08:51;;;;;;;4.95;3.35;;;9.60;69.90;;;;;;5036848;28;20037;-68
2022/04/20 02:11:16;;;;;;;5.40;3.90;;;9.60;69.90;;;;;;5034039;28;20036;-66
2022/04/20 02:13:42;;;;;;;7.22;3.88;;;9.60;70.10;;;;;;5031589;28;20036;-67
2022/04/20 02:16:08;;;;;;;6.03;4.22;;;9.60;70.50;;;;;;5031321;28;20021;-67
2022/04/20 02:18:33;;;;;;;4.47;3.65;;;9.50;71.00;;;;;;5028239;28;20386;-67
2022/04/20 02:20:59;;;;;;;6.97;4.35;;;9.40;71.50;;;;;;5032722;28;20021;-67
2022/04/20 02:23:24;;;;;;;5.35;4.10;;;9.40;71.70;;;;;;5031059;28;20105;-67
2022/04/20 02:25:50;;;;;;;4.53;3.40;;;9.40;71.90;;;;;;5031015;28;20032;-67
2022/04/20 02:28:15;;;;;;;7.53;5.03;;;9.30;71.70;;;;;;5039486;28;20033;-67
2022/04/20 02:30:41;;;;;;;5.18;3.42;;;9.30;71.50;;;;;;5028610;28;20432;-67
2022/04/20 02:33:06;;;;;;;6.63;3.97;;;9.30;71.60;;;;;;5028361;28;20056;-67
2022/04/20 02:35:32;;;;;;;5.93;3.58;;;9.30;71.70;;;;;;5041071;28;20037;-67
2022/04/20 02:37:59;;;;;;;7.00;4.32;;;9.30;71.90;;;;;;5033889;28;20021;-67
2022/04/20 02:40:25;;;;;;;6.03;4.32;;;9.20;72.00;;;;;;5030923;28;20029;-67
2022/04/20 02:42:50;;;;;;;7.45;4.20;;;9.20;71.90;;;;;;5031027;28;20379;-67
2022/04/20 02:45:16;;;;;;;5.85;4.10;;;9.20;72.20;;;;;;5034749;28;20041;-67
2022/04/20 02:47:42;;;;;;;4.47;3.55;;;9.20;72.20;;;;;;5039992;28;20026;-67
2022/04/20 02:50:08;;;;;;;5.32;4.35;;;9.20;72.30;;;;;;5045464;28;20029;-67
2022/04/20 02:52:34;;;;;;;4.97;3.42;;;9.20;72.50;;;;;;5040616;28;20087;-67
2022/04/20 02:54:59;;;;;;;4.00;3.20;;;9.10;72.20;;;;;;5042925;28;20079;-67
2022/04/20 02:57:25;;;;;;;4.63;3.40;;;9.20;72.10;;;;;;5039104;28;20144;-67
2022/04/20 02:59:51;;;;;;;4.80;3.35;;;9.10;72.00;;;;;;5035669;28;20121;-68
2022/04/20 03:02:17;;;;;;;4.30;3.40;;;9.10;71.90;;;;;;5037432;28;20108;-67
2022/04/20 03:04:43;;;;;;;5.03;3.42;;;9.00;72.10;;;;;;5045757;28;20059;-67
2022/04/20 03:07:08;;;;;;;6.32;3.40;;;9.00;72.20;;;;;;5040213;28;20058;-67
2022/04/20 03:09:34;;;;;;;5.25;3.40;;;9.00;72.10;;;;;;5039860;28;20459;-67
2022/04/20 03:11:59;;;;;;;4.25;3.30;;;9.00;72.00;;;;;;5042931;28;20033;-67
2022/04/20 03:14:25;;;;;;;5.60;3.53;;;9.00;71.90;;;;;;5042780;28;20086;-67
2022/04/20 03:16:50;;;;;;;4.65;2.95;;;8.90;71.80;;;;;;5034409;28;21213;-67
2022/04/20 03:19:16;;;;;;;4.63;2.65;;;8.90;71.70;;;;;;5040055;28;20029;-67
2022/04/20 03:21:41;;;;;;;4.70;3.20;;;8.90;71.60;;;;;;5037265;28;20030;-67
2022/04/20 03:24:07;;;;;;;3.83;2.33;;;8.90;71.60;;;;;;5034245;28;20493;-67
2022/04/20 03:26:32;;;;;;;4.95;2.88;;;8.80;71.50;;;;;;5036948;28;20021;-67
2022/04/20 03:28:58;;;;;;;5.40;3.38;;;8.80;71.60;;;;;;5042718;28;20052;-67
2022/04/20 03:31:23;;;;;;;4.82;3.67;;;8.80;71.70;;;;;;5039762;28;20448;-67
2022/04/20 03:33:49;;;;;;;5.13;3.50;;;8.80;71.70;;;;;;5042800;28;20029;-67
2022/04/20 03:36:15;;;;;;;6.80;3.58;;;8.70;71.80;;;;;;5040070;28;20560;-67
2022/04/20 03:38:40;;;;;;;5.72;3.15;;;8.70;71.90;;;;;;5036957;28;20043;-67
2022/04/20 03:41:06;;;;;;;4.07;3.13;;;8.60;71.90;;;;;;5037940;28;20072;-67
2022/04/20 03:43:32;;;;;;;3.97;3.08;;;8.70;72.00;;;;;;5035609;28;20108;-68
2022/04/20 03:45:57;;;;;;;3.83;2.85;;;8.60;72.00;;;;;;5042340;28;20481;-67
2022/04/20 03:48:23;;;;;;;5.80;3.05;;;8.60;72.00;;;;;;5037040;28;20025;-67
2022/04/20 03:50:50;;;;;;;4.78;2.90;;;8.60;71.90;;;;;;5044006;28;20033;-67
2022/04/20 03:53:16;;;;;;;4.45;3.15;;;8.60;71.80;;;;;;5039630;28;20025;-67
2022/04/20 03:55:41;;;;;;;4.60;3.00;;;8.60;71.80;;;;;;5039655;28;20075;-67
2022/04/20 03:58:07;;;;;;;4.47;3.30;;;8.60;71.90;;;;;;5038617;28;20022;-67
2022/04/20 04:00:32;;;;;;;4.47;3.00;;;8.50;71.90;;;;;;5036169;28;20032;-67
2022/04/20 04:02:58;;;;;;;3.80;2.88;;;8.50;71.90;;;;;;5031812;28;20032;-67
2022/04/20 04:05:24;;;;;;;5.63;3.30;;;8.50;71.90;;;;;;5035340;28;20088;-67
2022/04/20 04:07:49;;;;;;;4.20;3.08;;;8.50;72.00;;;;;;5033755;28;20033;-67
2022/04/20 04:10:15;;;;;;;4.57;3.20;;;8.40;72.00;;;;;;5039282;28;20028;-67
2022/04/20 04:12:41;;;;;;;4.28;3.40;;;8.40;72.30;;;;;;5045652;28;20029;-67
2022/04/20 04:15:07;;;;;;;5.25;3.35;;;8.40;72.30;;;;;;5041905;28;20048;-66
2022/04/20 04:17:33;;;;;;;5.80;3.88;;;8.30;72.40;;;;;;5030463;28;20108;-67
2022/04/20 04:19:59;;;;;;;6.68;3.60;;;8.30;72.50;;;;;;5037156;28;20132;-67
2022/04/20 04:22:25;;;;;;;3.47;2.65;;;8.30;72.60;;;;;;5040110;28;20400;-67
2022/04/20 04:24:50;;;;;;;8.00;4.13;;;8.30;72.60;;;;;;5036534;28;20091;-67
2022/04/20 04:27:17;;;;;;;5.03;3.25;;;8.30;72.80;;;;;;5035486;28;20025;-67
2022/04/20 04:29:42;;;;;;;5.47;2.97;;;8.20;73.00;;;;;;5034460;28;20040;-67
2022/04/20 04:32:08;;;;;;;4.68;3.10;;;8.20;73.00;;;;;;5031607;28;20095;-67
2022/04/20 04:34:34;;;;;;;3.92;2.92;;;8.20;72.90;;;;;;5034992;28;20501;-67
2022/04/20 04:37:00;;;;;;;4.90;3.30;;;8.20;72.80;;;;;;5038237;28;20017;-67
2022/04/20 04:39:28;;;;;;;5.05;3.58;;;8.10;72.90;;;;;;5038495;28;20079;-67
2022/04/20 04:41:56;;;;;;;3.92;3.28;;;8.10;72.90;;;;;;5036438;28;20018;-67
2022/04/20 04:44:22;;;;;;;5.75;3.08;;;8.10;73.20;;;;;;5044609;28;20111;-68
2022/04/20 04:49:33;;;;;;;3.28;2.70;;;8.10;73.50;;;;;;5038329;28;20035;-67
2022/04/20 04:51:59;;;;;;;5.18;3.28;;;8.10;73.70;;;;;;5035643;28;20449;-68
2022/04/20 04:54:25;;;;;;;4.93;3.08;;;8.00;73.80;;;;;;5012134;28;20047;-67
2022/04/20 04:56:51;;;;;;;5.93;3.45;;;8.00;73.80;;;;;;5035725;28;20136;-67
2022/04/20 04:59:18;;;;;;;4.85;3.60;;;8.00;74.00;;;;;;5033366;28;20399;-67
2022/04/20 05:01:43;;;;;;;3.85;2.65;;;8.00;74.20;;;;;;5034850;28;20017;-67
2022/04/20 05:04:11;;;;;;;7.43;3.53;;;8.00;74.30;;;;;;5032109;28;20468;-67
2022/04/20 05:06:36;;;;;;;5.07;3.38;;;8.00;74.30;;;;;;5032679;28;20614;-67
2022/04/20 05:09:02;;;;;;;4.47;2.92;;;8.00;74.40;;;;;;5032327;28;20037;-67
2022/04/20 05:11:27;;;;;;;5.32;2.92;;;8.00;74.20;;;;;;5029386;28;20025;-67
2022/04/20 05:13:53;;;;;;;4.30;2.80;;;8.00;74.20;;;;;;5035160;28;20523;-67
2022/04/20 05:16:19;;;;;;;4.90;3.17;;;8.00;74.10;;;;;;5046007;28;20389;-67
2022/04/20 05:18:44;;;;;;;4.40;3.13;;;8.10;74.00;;;;;;5036930;28;20461;-66
2022/04/20 05:21:10;;;;;;;4.97;3.03;;;8.10;73.80;;;;;;5033112;28;20057;-67
2022/04/20 05:23:35;;;;;;;3.40;2.58;;;8.10;73.80;;;;;;5029655;28;20041;-66
2022/04/20 05:26:01;;;;;;;4.35;3.10;;;8.20;73.80;;;;;;5035665;28;20047;-67
2022/04/20 05:28:26;;;;;;;4.97;3.47;;;8.20;73.80;;;;;;5039071;28;20025;-67
2022/04/20 05:30:52;;;;;;;4.22;2.97;;;8.20;73.90;;;;;;5033321;28;20051;-67
2022/04/20 05:33:17;;;;;;;4.07;2.78;;;8.20;73.90;;;;;;5038120;28;20028;-66
2022/04/20 05:35:43;;;;;;;4.72;3.17;;;8.20;73.70;;;;;;5035980;28;20037;-67
2022/04/20 05:43:37;;;;;;;5.15;2.83;;;8.30;74.00;;;;;;5034862;28;20028;-60
2022/04/20 05:46:03;;;;;;;5.07;2.75;;;8.30;73.80;;;;;;5037462;28;20021;-58
2022/04/20 05:48:28;;;;;;;4.60;2.65;;;8.40;73.70;;;;;;5031619;28;20021;-58
2022/04/20 05:50:54;;;;;;;3.38;2.22;;;8.40;73.70;;;;;;5034267;28;20128;-58
2022/04/20 05:53:19;;;;;;;3.65;2.42;;;8.40;74.30;;;;;;5031776;28;20521;-59
2022/04/20 05:55:45;;;;;;;4.70;2.63;;;8.40;73.60;;;;;;5034504;28;20026;-59
2022/04/20 05:58:10;;;;;;;4.80;2.38;;;8.50;73.70;;;;;;5033874;28;20579;-58
2022/04/20 06:00:36;;;;;;;4.47;2.83;;;8.50;73.60;;;;;;5029720;28;20052;-58
2022/04/20 06:03:02;;;;;;;4.35;2.88;;;8.60;73.60;;;;;;5031744;28;20053;-59
2022/04/20 06:05:27;;;;;;;5.35;3.03;;;8.60;73.40;;;;;;5035242;28;20040;-59
2022/04/20 06:07:53;;;;;;;3.83;2.53;;;8.60;73.50;;;;;;5044901;28;20017;-59
2022/04/20 06:10:18;;;;;;;6.10;3.10;;;8.60;73.40;;;;;;5048444;28;20021;-59
2022/04/20 06:12:46;;;;;;;5.80;3.85;;;8.70;73.70;;;;;;5047372;28;20565;-59
2022/04/20 06:15:12;;;;;;;8.68;3.10;;;8.70;73.70;;;;;;5041873;28;20025;-59
2022/04/20 06:17:37;;;;;;;3.42;2.80;;;8.70;73.90;;;;;;5032443;28;20026;-59
2022/04/20 06:20:03;;;;;;;5.20;2.60;;;8.80;74.10;;;;;;5032277;28;20100;-59
2022/04/20 06:22:30;;;;;;;5.07;3.25;;;8.80;74.00;;;;;;5032076;28;20091;-59
2022/04/20 06:24:56;;;;;;;4.90;2.83;;;8.80;73.90;;;;;;5047944;28;20075;-59
2022/04/20 06:27:28;;;;;;;6.28;2.80;;;8.80;73.60;;;;;;5032371;28;20018;-59
2022/04/20 06:29:53;;;;;;;3.83;2.80;;;8.90;73.30;;;;;;5032244;28;20151;-59
2022/04/20 06:32:19;;;;;;;4.13;2.90;;;9.00;73.50;;;;;;5032264;28;20112;-59
2022/04/20 06:34:44;;;;;;;4.38;2.67;;;9.00;73.50;;;;;;5035805;28;20040;-59
2022/04/20 06:37:14;;;;;;;3.83;2.70;;;9.00;73.30;;;;;;5050928;28;20021;-59
2022/04/20 06:39:39;;;;;;;6.40;3.27;;;9.10;73.40;;;;;;5052026;28;20060;-59
2022/04/20 06:42:07;;;;;;;7.38;2.95;;;9.10;73.30;;;;;;5051155;28;20349;-60
2022/04/20 06:44:33;;;;;;;4.13;3.05;;;9.20;73.20;;;;;;5050982;28;20029;-59
2022/04/20 06:46:59;;;;;;;3.53;2.40;;;9.20;73.00;;;;;;5049384;28;20465;-59
2022/04/20 06:49:24;;;;;;;3.75;2.30;;;9.30;72.90;;;;;;5049877;28;20032;-60
2022/04/20 07:00:03;;;;;;;3.88;2.25;;;9.50;72.20;;;;;;5052019;28;20055;-59
2022/04/20 07:02:29;;;;;;;4.85;2.83;;;9.60;72.20;;;;;;5051796;28;20116;-59
2022/04/20 07:04:54;;;;;;;5.63;2.78;;;9.70;72.20;;;;;;5050427;28;20137;-59
2022/04/20 07:07:20;;;;;;;5.05;2.95;;;9.70;71.80;;;;;;5048800;28;20090;-60
2022/04/20 07:09:46;;;;;;;4.90;2.88;;;9.80;71.60;;;;;;5050047;28;20040;-59
2022/04/20 07:12:12;;;;;;;5.18;2.75;;;9.90;71.50;;;;;;5046886;28;20036;-59
2022/04/20 07:14:37;;;;;;;4.20;2.08;;;9.90;71.10;;;;;;5044388;28;20029;-59
2022/04/20 07:17:03;;;;;;;3.53;2.20;;;9.90;70.90;;;;;;5049990;28;20025;-59
2022/04/20 07:19:28;;;;;;;3.17;2.20;;;10.10;70.90;;;;;;5047680;28;20048;-59
2022/04/20 07:21:54;;;;;;;3.40;2.42;;;10.10;70.90;;;;;;5043590;28;20500;-59
2022/04/20 07:24:19;;;;;;;3.83;2.50;;;10.20;70.60;;;;;;5031737;28;20041;-59
2022/04/20 07:26:45;;;;;;;5.47;2.85;;;10.20;70.40;;;;;;5039767;28;20049;-59
2022/04/20 07:29:10;;;;;;;4.47;2.75;;;10.30;70.40;;;;;;5031637;28;20397;-59
2022/04/20 07:31:36;;;;;;;4.05;2.47;;;10.40;70.40;;;;;;5031668;28;20045;-59
2022/04/20 07:34:02;;;;;;;4.97;2.85;;;10.40;70.00;;;;;;5016845;28;20497;-59
2022/04/20 07:36:27;;;;;;;3.17;2.38;;;10.50;69.70;;;;;;5053167;28;20036;-59
2022/04/20 07:38:53;;;;;;;9.25;3.17;;;10.50;69.50;;;;;;5055176;28;20021;-59
2022/04/20 07:41:18;;;;;;;6.57;3.03;;;10.60;69.40;;;;;;5055097;28;20021;-59
2022/04/20 07:43:44;;;;;;;4.20;2.40;;;10.70;69.80;;;;;;5055158;28;20395;-59
2022/04/20 07:46:12;;;;;;;4.57;2.30;;;10.80;69.20;;;;;;5053860;28;20457;-59
2022/04/20 07:48:38;;;;;;;5.97;2.80;;;10.80;69.10;;;;;;5037632;28;20036;-59
2022/04/20 07:51:03;;;;;;;5.93;2.33;;;10.90;68.90;;;;;;5054807;28;20025;-59
2022/04/20 07:53:29;;;;;;;3.75;2.67;;;11.00;68.70;;;;;;5055047;28;20029;-60
2022/04/20 07:55:55;;;;;;;5.28;2.90;;;11.10;68.50;;;;;;5053571;28;20508;-59
2022/04/20 07:58:21;;;;;;;4.65;3.30;;;11.10;68.10;;;;;;5054874;28;20033;-59
2022/04/20 08:00:49;;;;;;;3.28;1.98;;;11.20;68.20;;;;;;5053434;28;20500;-59
2022/04/20 08:03:18;;;;;;;2.72;2.17;;;11.30;68.10;;;;;;5054157;28;20071;-59
2022/04/20 08:05:53;;;;;;;3.70;2.47;;;11.40;67.50;;;;;;5054715;28;20031;-59
2022/04/20 08:08:19;;;;;;;5.65;2.28;;;11.50;67.40;;;;;;5054689;28;20490;-60
2022/04/20 08:10:45;;;;;;;3.55;2.13;;;11.50;67.40;;;;;;5053432;28;20029;-60
2022/04/20 08:15:55;;;;;;;2.90;2.42;;;11.60;66.40;;;;;;5054740;28;20051;-59
2022/04/20 08:18:21;;;;;;;4.63;2.58;;;11.70;66.90;;;;;;5053874;28;20404;-60
2022/04/20 08:20:47;;;;;;;5.43;2.50;;;11.80;66.00;;;;;;5054467;28;20560;-59
2022/04/20 08:23:13;;;;;;;4.00;2.13;;;11.80;65.40;;;;;;5054076;28;20045;-59
2022/04/20 08:25:39;;;;;;;3.88;2.60;;;11.90;65.40;;;;;;5054452;28;20021;-59
2022/04/20 08:28:06;;;;;;;3.60;2.03;;;12.00;65.50;;;;;;5054371;28;20078;-60
2022/04/20 08:30:33;;;;;;;5.45;2.47;;;12.10;65.40;;;;;;5053160;28;20048;-61
2022/04/20 08:32:58;;;;;;;3.30;1.80;;;12.20;65.20;;;;;;5054280;28;20032;-59
2022/04/20 08:35:24;;;;;;;3.30;1.90;;;12.20;65.10;;;;;;5054191;28;20151;-59
2022/04/20 08:37:49;;;;;;;3.58;2.30;;;12.30;64.80;;;;;;5054050;28;20492;-59
2022/04/20 08:40:15;;;;;;;3.42;2.13;;;12.40;64.00;;;;;;5053892;28;20028;-59
2022/04/20 08:42:41;;;;;;;2.97;2.08;;;12.50;63.70;;;;;;5054034;28;20393;-59
2022/04/20 08:45:08;;;;;;;5.80;2.08;;;12.60;63.60;;;;;;5051713;28;20044;-59
2022/04/20 08:47:36;;;;;;;3.22;2.05;;;12.70;63.20;;;;;;5053310;28;20029;-59
2022/04/20 08:50:03;;;;;;;3.42;1.67;;;12.70;63.10;;;;;;5053484;28;20512;-59
2022/04/20 08:52:38;;;;;;;4.05;1.90;;;12.80;62.90;;;;;;5053655;28;20036;-59
2022/04/20 08:55:09;;;;;;;4.55;2.10;;;12.90;62.40;;;;;;5053009;28;20036;-59
2022/04/20 08:57:36;;;;;;;4.93;1.95;;;13.00;62.10;;;;;;5053578;28;20024;-59
2022/04/20 09:00:07;;;;;;;4.32;1.90;;;13.10;61.80;;;;;;5053627;28;20087;-59
2022/04/20 09:02:34;;;;;;;3.22;1.45;;;13.20;61.60;;;;;;5049802;28;20025;-60
2022/04/20 09:04:59;;;;;;;4.15;2.00;;;13.20;61.50;;;;;;5050621;28;20171;-60
2022/04/20 09:07:25;;;;;;;3.40;2.22;;;13.40;61.80;;;;;;5051642;28;20478;-59
2022/04/20 09:09:51;;;;;;;3.67;2.10;;;13.40;61.40;;;;;;5046586;28;20017;-60
2022/04/20 09:12:22;;;;;;;3.13;2.00;;;13.60;61.60;;;;;;5048994;28;20047;-60
2022/04/20 09:14:50;;;;;;;5.10;1.77;;;13.60;60.80;;;;;;5051699;28;20503;-59
2022/04/20 09:17:18;;;;;;;2.50;1.40;;;13.70;60.60;;;;;;5048956;28;20021;-60
2022/04/20 09:19:45;;;;;;;2.40;1.60;;;13.80;60.50;;;;;;5046563;28;20021;-59
2022/04/20 09:22:21;;;;;;;4.22;1.80;;;13.90;60.40;;;;;;5043422;28;20038;-60
2022/04/20 09:24:57;;;;;;;3.20;1.70;;;14.00;60.40;;;;;;5051789;28;20049;-59
2022/04/20 09:27:23;;;;;;;3.00;1.95;;;14.10;59.90;;;;;;5052968;28;20380;-59
2022/04/20 09:29:56;;;;;;;3.90;1.90;;;14.20;59.80;;;;;;5053198;28;20032;-60
2022/04/20 09:32:34;;;;;;;4.05;1.63;;;14.30;59.50;;;;;;5053000;28;20044;-59
2022/04/20 09:35:03;;;;;;;3.35;1.75;;;14.30;58.90;;;;;;5052861;28;20059;-59
2022/04/20 09:37:30;;;;;;;6.18;2.13;;;14.40;58.70;;;;;;5051658;28;20029;-59
2022/04/20 09:39:56;;;;;;;5.47;1.58;;;14.40;58.10;;;;;;5052412;28;20043;-59
2022/04/20 09:42:21;;;;;;;3.95;1.50;;;14.50;58.10;;;;;;5052638;28;20017;-59
2022/04/20 09:45:05;;;;;;;4.60;2.25;;;14.60;58.70;;;;;;5052351;28;20041;-60
2022/04/20 09:50:25;;;;;;;2.35;1.40;;;14.80;57.40;;;;;;5053338;28;20035;-59
2022/04/20 09:52:55;;;;;;;2.97;1.45;;;14.80;57.00;;;;;;5052539;28;20116;-59
2022/04/20 09:55:36;;;;;;;3.67;1.60;;;14.90;56.80;;;;;;5051736;28;20425;-59
2022/04/20 09:58:19;;;;;;;3.30;1.50;;;15.00;56.00;;;;;;5045604;28;20034;-59
2022/04/20 10:00:51;;;;;;;2.28;1.35;;;15.10;54.30;;;;;;5047389;28;20033;-59
2022/04/20 10:03:28;;;;;;;1.83;1.00;;;15.10;54.80;;;;;;5045283;28;20598;-60
2022/04/20 10:05:55;;;;;;;2.80;1.52;;;15.20;55.10;;;;;;5052466;28;20067;-60
2022/04/20 10:08:21;;;;;;;2.00;1.00;;;15.30;54.20;;;;;;5052336;28;20048;-60
2022/04/20 10:10:48;;;;;;;2.40;1.40;;;15.40;54.10;;;;;;5051092;28;20035;-59
2022/04/20 10:13:15;;;;;;;1.90;1.10;;;15.50;53.60;;;;;;5048537;28;20106;-59
2022/04/20 10:18:28;;;;;;;2.78;1.30;;;15.70;53.60;;;;;;5052624;28;20447;-59
2022/04/20 10:21:04;;;;;;;3.22;1.20;;;15.90;52.50;;;;;;5049898;28;20025;-59
2022/04/20 10:23:30;;;;;;;1.80;1.15;;;16.00;51.90;;;;;;5050410;28;20174;-59
2022/04/20 10:25:58;;;;;;;3.47;1.35;;;16.00;51.50;;;;;;5051769;28;20473;-59
2022/04/20 10:28:45;;;;;;;4.03;2.17;;;16.20;51.20;;;;;;5045398;28;20021;-59
2022/04/20 10:31:26;;;;;;;2.17;1.20;;;16.30;50.80;;;;;;5045992;28;20431;-59
2022/04/20 10:33:53;;;;;;;2.33;1.10;;;16.40;51.00;;;;;;5045144;28;20112;-59
2022/04/20 10:36:28;;;;;;;2.42;1.77;;;16.50;50.20;;;;;;5050123;28;20376;-59
2022/04/20 10:39:22;;;;;;;2.45;1.20;;;16.70;50.30;;;;;;5050237;28;20507;-59
2022/04/20 10:42:20;;;;;;;2.67;1.45;;;16.90;49.70;;;;;;5051901;28;20034;-59
2022/04/20 10:44:55;;;;;;;3.22;1.30;;;17.00;49.10;;;;;;5028669;28;20452;-59
2022/04/20 10:47:26;;;;;;;2.33;1.10;;;17.20;49.00;;;;;;5051874;28;20388;-59
2022/04/20 10:50:09;;;;;;;2.72;1.20;;;17.30;48.50;;;;;;5051985;28;20040;-59
2022/04/20 10:52:39;;;;;;;1.58;0.98;;;17.40;48.20;;;;;;5051432;28;20055;-59
2022/04/20 10:55:06;;;;;;;1.67;1.15;;;17.50;47.10;;;;;;5047022;28;20048;-59
2022/04/20 10:57:42;;;;;;;2.97;1.25;;;17.60;47.30;;;;;;5045894;28;20025;-59
2022/04/20 11:00:16;;;;;;;3.08;1.05;;;17.90;47.50;;;;;;5047075;28;20047;-59
2022/04/20 11:02:53;;;;;;;2.92;1.20;;;18.10;48.10;;;;;;5049230;28;20025;-59
2022/04/20 11:05:21;;;;;;;2.35;1.02;;;18.30;48.50;;;;;;5050128;28;20104;-60
2022/04/20 11:08:01;;;;;;;2.00;0.98;;;19.60;47.90;;;;;;5046759;28;20111;-60
2022/04/20 11:10:28;;;;;;;2.17;0.90;;;21.90;44.80;;;;;;5053084;28;20040;-60
2022/04/20 11:19:08;;;;;;;1.42;0.98;;;25.00;37.60;;;;;;5047065;28;20036;-60
2022/04/20 11:21:35;;;;;;;2.20;1.17;;;25.20;37.90;;;;;;5051927;28;20485;-60
2022/04/20 11:24:03;;;;;;;2.60;1.00;;;25.20;37.90;;;;;;5047921;28;20059;-60
2022/04/20 11:26:39;;;;;;;2.78;0.95;;;24.60;37.70;;;;;;5050887;28;20108;-59
2022/04/20 11:29:15;;;;;;;1.60;0.98;;;24.10;38.80;;;;;;5053752;28;20048;-60
2022/04/20 11:31:44;;;;;;;1.75;1.20;;;23.80;38.70;;;;;;5053529;28;20362;-60
2022/04/20 11:34:11;;;;;;;2.00;1.23;;;23.50;38.10;;;;;;5053402;28;20362;-60
2022/04/20 11:36:43;;;;;;;1.85;0.95;;;23.10;38.50;;;;;;5053515;28;20104;-60
2022/04/20 11:39:13;;;;;;;2.15;1.13;;;23.00;39.40;;;;;;5050703;28;20020;-60
2022/04/20 11:41:50;;;;;;;2.90;1.20;;;23.10;39.70;;;;;;5047907;28;20049;-60
2022/04/20 11:44:26;;;;;;;4.45;1.50;;;23.20;39.30;;;;;;5050518;28;20021;-60
2022/04/20 11:46:54;;;;;;;1.85;0.90;;;23.20;39.00;;;;;;5051756;28;20025;-60
2022/04/20 11:49:20;;;;;;;3.17;1.02;;;23.50;39.30;;;;;;5054667;28;20025;-60
2022/04/20 11:51:53;;;;;;;2.28;1.30;;;23.70;38.90;;;;;;5054619;28;20025;-60
2022/04/20 11:54:20;;;;;;;3.63;1.50;;;23.90;38.60;;;;;;5054808;28;20040;-60
2022/04/20 11:56:46;;;;;;;1.60;1.15;;;24.20;38.40;;;;;;5054674;28;20025;-60
2022/04/20 11:59:11;;;;;;;1.35;0.90;;;24.30;38.20;;;;;;5054651;28;20032;-60
2022/04/20 12:01:38;;;;;;;1.88;1.05;;;24.60;38.80;;;;;;5054974;28;20098;-60
2022/04/20 12:04:30;;;;;;;3.53;1.00;;;24.80;37.70;;;;;;5054645;28;20384;-60
2022/04/20 12:06:57;;;;;;;1.92;1.17;;;24.80;37.60;;;;;;5053547;28;20029;-60
2022/04/20 12:09:24;;;;;;;1.48;0.98;;;24.80;37.00;;;;;;5054023;28;20029;-61
2022/04/20 12:11:54;;;;;;;2.95;1.00;;;25.00;37.20;;;;;;5054044;28;20021;-60
2022/04/20 12:14:21;;;;;;;2.17;1.30;;;25.30;36.90;;;;;;5054615;28;20107;-60
2022/04/20 12:16:47;;;;;;;2.72;1.70;;;25.50;36.50;;;;;;5054735;28;20392;-60
2022/04/20 12:19:13;;;;;;;2.15;1.10;;;25.60;36.30;;;;;;5053257;28;20025;-60
2022/04/20 12:21:46;;;;;;;1.60;0.90;;;25.60;36.60;;;;;;5052503;28;20394;-60
2022/04/20 12:24:24;;;;;;;2.22;1.30;;;25.80;36.80;;;;;;5052612;28;20032;-60
2022/04/20 12:26:51;;;;;;;3.22;1.30;;;26.10;36.20;;;;;;5034343;28;20028;-60
2022/04/20 12:29:20;;;;;;;2.85;1.60;;;26.30;36.00;;;;;;5034346;28;20025;-60
2022/04/20 12:31:49;;;;;;;1.58;1.10;;;26.20;35.60;;;;;;5034050;28;20508;-60
2022/04/20 12:34:15;;;;;;;3.38;0.85;;;26.20;35.60;;;;;;5047584;28;20045;-60
2022/04/20 12:37:06;;;;;;;2.88;1.10;;;26.30;36.00;;;;;;5051915;28;20037;-60
2022/04/20 12:39:34;;;;;;;2.40;1.00;;;26.60;35.60;;;;;;5053187;28;20044;-60
2022/04/20 12:42:11;;;;;;;1.95;1.30;;;26.70;35.70;;;;;;5053984;28;20017;-60
2022/04/20 12:44:39;;;;;;;1.73;1.17;;;26.70;35.70;;;;;;5053995;28;20439;-61
2022/04/20 12:47:16;;;;;;;1.70;1.10;;;26.70;35.60;;;;;;5054153;28;20021;-60
2022/04/20 12:49:45;;;;;;;2.58;1.10;;;26.80;35.20;;;;;;5053318;28;20057;-60
2022/04/20 12:52:14;;;;;;;2.05;1.10;;;26.70;35.30;;;;;;5052109;28;20661;-61
2022/04/20 12:54:40;;;;;;;5.35;1.30;;;26.80;35.00;;;;;;5052909;28;20032;-60
2022/04/20 13:03:08;;;;;;;2.50;1.40;;;26.80;34.50;;;;;;5048880;28;20024;-61
2022/04/20 13:05:36;;;;;;;2.33;1.60;;;26.80;34.60;;;;;;5052392;28;20032;-60
2022/04/20 13:08:03;;;;;;;10.40;2.00;;;26.80;34.80;;;;;;5053858;28;20102;-60
2022/04/20 13:10:30;;;;;;;10.60;3.08;;;26.80;34.60;;;;;;5053515;28;20025;-60
2022/04/20 13:12:56;;;;;;;11.43;3.08;;;27.00;34.60;;;;;;5052003;28;20023;-60
2022/04/20 13:15:24;;;;;;;5.80;1.58;;;27.00;34.50;;;;;;5053019;28;20025;-61
2022/04/20 13:17:51;;;;;;;3.15;1.70;;;27.10;34.50;;;;;;5052265;28;20469;-60
2022/04/20 13:20:17;;;;;;;6.78;1.83;;;27.10;33.80;;;;;;5052713;28;20044;-60
2022/04/20 13:22:43;;;;;;;16.98;3.25;;;26.80;34.20;;;;;;5052161;28;20052;-61
2022/04/20 13:27:55;;;;;;;5.45;3.22;;;26.40;34.90;;;;;;5048669;28;20496;-60
2022/04/20 13:30:26;;;;;;;4.43;1.40;;;26.20;35.80;;;;;;5050781;28;20052;-61
2022/04/20 13:32:52;;;;;;;3.88;1.80;;;26.10;35.90;;;;;;5046098;28;20177;-60
2022/04/20 13:35:19;;;;;;;2.83;1.10;;;26.30;35.90;;;;;;5048562;28;20036;-60
2022/04/20 13:37:44;;;;;;;4.55;1.67;;;26.40;35.30;;;;;;5051503;28;20083;-60